Airfield :







YOU CAN JOIN US ON...

 
LOGIN :

Register | Disclaimer

   EN    FR    IT 

 









Legend :    VFR   Marginal VFR   IFR   Intensive IFR   Very Intensive IFR
Visi :
Ceiling :
>= 8 km
>= 3000ft
5 to 8 km
1000 to 3000 ft
1500m to 5 km
500 to 1000 ft
800 to 1500m
200 to 500 ft
< 800m
< 200 ft
Symbols :   Thunderstorms  Fog  Heavy snow  Heavy precipitations  Wind > 20 kt






- Airport Elevation : 215 ft
- IATA code : MSS


KMSS - Massena International Richards Field

CURRENT METAR :
  • 171153Z AUTO 32004KT 10SM OVC041 M08/M15 A3028 RMK AO2 SLP260 T10831150 11022 21083 53035

EXPIRED METARs :
  • 171053Z AUTO 33005KT 10SM OVC039 M07/M14 A3024 RMK AO2 SLP245 T10721144
  • 170953Z AUTO 33006KT 10SM OVC037 M07/M13 A3021 RMK AO2 SLP235 T10671133
  • 170911Z AUTO 32006KT 10SM OVC031 M07/M12 A3018 RMK AO2 T10671122
  • 170901Z AUTO 31005KT 10SM BKN029 M07/M12 A3018 RMK AO2 T10721122
  • 170853Z AUTO 30006KT 10SM SCT029 M07/M12 A3017 RMK AO2 SLP224 T10721122 53030

TAF KMSS
Valid from the 17 at 12:00 until the 18 at 12:00 UTC


171123Z 1712/1812 33006KT P6SM SCT040
FM171400 31005KT P6SM FEW040
FM172100 00000KT P6SM SKC
FM180400 11005KT P6SM FEW250
FM180600 08006KT P6SM SCT150
FM181100 07007KT P6SM VCSH OVC060



MET'MAP, your aeronautical weather chart ! - Copyright ORBIFLY December 2007 - Disclaimer

ORBIFLY MET'MAP TEAM :

Programming & Development : Alexandra Zaïnal
Concept & original design : Baudouin d'Aumeries
Assistance for programming : Marc-Olivier Méhu
Technical & hardware support : Manuel Goepfert

Contact : metmap@orbifly.com




SOURCES & CREDITS :

   NOAA